createdAt,value
2022-11-18T00:01:17.728Z,2.70
2022-11-18T00:03:46.829Z,3.10
2022-11-18T00:06:20.200Z,2.58
2022-11-18T00:08:48.035Z,2.50
2022-11-18T00:11:39.047Z,2.75
2022-11-18T00:14:20.027Z,3.00
2022-11-18T00:16:54.972Z,3.15
2022-11-18T00:19:25.732Z,3.10
2022-11-18T00:21:53.149Z,3.15
2022-11-18T00:24:20.959Z,2.85
2022-11-18T00:26:48.391Z,3.30
2022-11-18T00:29:16.340Z,2.75
2022-11-18T00:31:44.509Z,3.25
2022-11-18T00:34:16.737Z,2.63
2022-11-18T00:36:45.042Z,3.17
2022-11-18T00:39:14.020Z,2.92
2022-11-18T00:41:59.795Z,3.15
2022-11-18T00:44:27.093Z,3.10
2022-11-18T00:46:54.697Z,3.55
2022-11-18T00:49:22.465Z,3.13
2022-11-18T00:51:49.727Z,3.13
2022-11-18T00:54:17.558Z,2.95
2022-11-18T00:56:44.813Z,2.95
2022-11-18T00:59:12.267Z,3.05
2022-11-18T01:01:39.643Z,3.25
2022-11-18T01:04:07.584Z,3.63
2022-11-18T01:06:34.926Z,2.97
2022-11-18T01:09:02.202Z,3.60
2022-11-18T01:11:47.901Z,3.38
2022-11-18T01:14:15.188Z,2.90
2022-11-18T01:16:42.528Z,3.20
2022-11-18T01:19:09.853Z,3.70
2022-11-18T01:21:37.071Z,3.30
2022-11-18T01:24:04.541Z,2.75
2022-11-18T01:26:31.642Z,3.10
2022-11-18T01:28:58.754Z,3.30
2022-11-18T01:31:25.919Z,3.10
2022-11-18T01:33:53.278Z,3.17
2022-11-18T01:36:21.703Z,2.80
2022-11-18T01:38:49.845Z,3.15
2022-11-18T01:41:18.423Z,2.85
2022-11-18T01:43:57.444Z,3.05
2022-11-18T01:46:26.964Z,2.78
2022-11-18T01:49:15.870Z,2.80
2022-11-18T01:51:51.837Z,3.38
2022-11-18T01:54:30.233Z,2.65
2022-11-18T01:57:00.918Z,2.97
2022-11-18T01:59:34.254Z,3.30
2022-11-18T02:02:06.100Z,3.13
2022-11-18T02:04:34.705Z,3.90
2022-11-18T02:07:03.099Z,3.65
2022-11-18T02:09:30.707Z,3.92
2022-11-18T02:11:57.897Z,3.85
2022-11-18T02:14:34.130Z,3.72
2022-11-18T02:17:20.155Z,3.80
2022-11-18T02:19:47.477Z,3.50
2022-11-18T02:22:51.941Z,3.22
2022-11-18T02:25:54.254Z,3.42
2022-11-18T02:28:33.027Z,2.97
2022-11-18T02:31:16.218Z,3.55
2022-11-18T02:34:13.975Z,3.13
2022-11-18T02:36:51.115Z,3.38
2022-11-18T02:39:23.875Z,3.80
2022-11-18T02:41:54.258Z,3.78
2022-11-18T02:44:24.571Z,3.38
2022-11-18T02:46:57.084Z,3.53
2022-11-18T02:49:32.557Z,3.55
2022-11-18T02:52:01.629Z,3.75
2022-11-18T02:54:30.017Z,3.35
2022-11-18T02:56:58.352Z,3.65
2022-11-18T02:59:28.795Z,3.60
2022-11-18T03:01:56.084Z,3.35
2022-11-18T03:04:24.527Z,3.40
2022-11-18T03:07:08.294Z,3.40
2022-11-18T03:09:39.069Z,3.30
2022-11-18T03:12:39.078Z,3.17
2022-11-18T03:15:45.116Z,3.30
2022-11-18T03:18:41.634Z,3.45
2022-11-18T03:21:11.892Z,3.35
2022-11-18T03:23:44.307Z,3.08
2022-11-18T03:26:21.280Z,3.72
2022-11-18T03:29:01.143Z,3.88
2022-11-18T03:31:35.877Z,3.40
2022-11-18T03:34:08.700Z,3.50
2022-11-18T03:36:41.022Z,3.60
2022-11-18T03:39:12.656Z,4.18
2022-11-18T03:41:46.471Z,3.92
2022-11-18T03:44:21.406Z,3.40
2022-11-18T03:47:00.442Z,3.90
2022-11-18T03:49:53.108Z,3.70
2022-11-18T03:52:24.873Z,3.53
2022-11-18T03:54:55.415Z,3.75
2022-11-18T03:57:31.180Z,3.67
2022-11-18T04:00:07.829Z,3.55
2022-11-18T04:02:35.914Z,3.90
2022-11-18T04:05:06.910Z,3.50
2022-11-18T04:07:57.416Z,3.58
2022-11-18T04:10:33.569Z,3.63
2022-11-18T04:13:08.780Z,3.47
2022-11-18T04:15:42.084Z,3.88
2022-11-18T04:18:10.452Z,4.25
2022-11-18T04:20:38.233Z,3.58
2022-11-18T04:23:06.646Z,3.42
2022-11-18T04:25:34.302Z,4.05
2022-11-18T04:28:01.725Z,3.70
2022-11-18T04:30:29.601Z,4.10
2022-11-18T04:32:57.136Z,3.90
2022-11-18T04:35:24.916Z,3.80
2022-11-18T04:37:52.350Z,4.20
2022-11-18T04:40:19.572Z,4.03
2022-11-18T04:42:46.878Z,4.03
2022-11-18T04:45:14.254Z,4.38
2022-11-18T04:47:41.854Z,3.75
2022-11-18T04:50:11.893Z,4.28
2022-11-18T04:52:39.168Z,4.00
2022-11-18T04:55:06.704Z,3.83
2022-11-18T04:57:34.120Z,3.95
2022-11-18T05:00:01.331Z,4.30
2022-11-18T05:02:28.609Z,4.60
2022-11-18T05:04:55.863Z,5.05
2022-11-18T05:07:23.224Z,4.60
2022-11-18T05:09:50.559Z,3.90
2022-11-18T05:12:36.488Z,4.35
2022-11-18T05:15:04.092Z,4.03
2022-11-18T05:17:31.461Z,3.75
2022-11-18T05:19:58.830Z,3.83
2022-11-18T05:22:26.310Z,3.90
2022-11-18T05:24:53.486Z,3.90
2022-11-18T05:27:20.817Z,4.07
2022-11-18T05:29:48.037Z,4.97
2022-11-18T05:32:15.331Z,4.20
2022-11-18T05:34:42.932Z,3.88
2022-11-18T05:37:10.400Z,4.20
2022-11-18T05:39:37.814Z,4.05
2022-11-18T05:42:24.374Z,4.40
2022-11-18T05:44:57.698Z,4.03
2022-11-18T05:47:25.450Z,4.35
2022-11-18T05:49:52.843Z,5.70
2022-11-18T05:52:20.145Z,6.97
2022-11-18T05:54:50.839Z,5.32
2022-11-18T05:57:18.285Z,5.00
2022-11-18T05:59:45.485Z,3.95
2022-11-18T06:02:21.683Z,3.80
2022-11-18T06:04:58.044Z,3.85
2022-11-18T06:07:36.190Z,3.80
2022-11-18T06:10:06.010Z,3.78
2022-11-18T06:12:39.310Z,3.70
2022-11-18T06:15:25.617Z,4.40
2022-11-18T06:18:01.829Z,4.50
2022-11-18T06:20:29.629Z,3.80
2022-11-18T06:22:58.463Z,3.88
2022-11-18T06:25:25.949Z,4.32
2022-11-18T06:27:56.712Z,4.25
2022-11-18T06:30:24.311Z,3.92
2022-11-18T06:32:51.737Z,4.10
2022-11-18T06:35:18.957Z,3.88
2022-11-18T06:37:47.424Z,3.78
2022-11-18T06:40:14.760Z,3.63
2022-11-18T06:43:00.720Z,4.32
2022-11-18T06:45:28.196Z,3.17
2022-11-18T06:48:00.597Z,3.92
2022-11-18T06:50:28.636Z,3.78
2022-11-18T06:52:55.912Z,3.58
2022-11-18T06:55:23.308Z,3.75
2022-11-18T06:57:50.478Z,4.43
2022-11-18T07:00:18.504Z,4.03
2022-11-18T07:02:45.815Z,4.45
2022-11-18T07:05:12.993Z,4.68
2022-11-18T07:07:42.413Z,4.55
2022-11-18T07:10:10.351Z,4.72
2022-11-18T07:12:37.615Z,4.35
2022-11-18T07:15:05.192Z,4.00
2022-11-18T07:17:32.612Z,3.72
2022-11-18T07:19:59.905Z,4.13
2022-11-18T07:22:27.277Z,4.07
2022-11-18T07:24:54.655Z,4.35
2022-11-18T07:27:21.874Z,4.20
2022-11-18T07:29:49.132Z,4.18
2022-11-18T07:32:16.353Z,4.40
2022-11-18T07:34:43.629Z,4.20
2022-11-18T07:37:10.902Z,4.22
2022-11-18T07:39:38.166Z,3.97
2022-11-18T07:42:05.415Z,4.25
2022-11-18T07:44:33.118Z,4.00
2022-11-18T07:47:00.389Z,4.32
2022-11-18T07:49:27.889Z,3.97
2022-11-18T07:51:55.347Z,3.85
2022-11-18T07:54:22.719Z,4.13
2022-11-18T07:56:49.950Z,3.80
2022-11-18T07:59:17.485Z,3.70
2022-11-18T08:01:45.077Z,4.22
2022-11-18T08:04:13.502Z,7.25
2022-11-18T08:06:40.916Z,4.28
2022-11-18T08:09:10.810Z,4.18
2022-11-18T08:11:38.242Z,3.70
2022-11-18T08:14:05.821Z,4.13
2022-11-18T08:16:33.077Z,4.15
2022-11-18T08:19:01.244Z,3.78
2022-11-18T08:21:28.650Z,4.10
2022-11-18T08:23:58.261Z,3.58
2022-11-18T08:26:26.214Z,3.50
2022-11-18T08:28:54.295Z,3.80
2022-11-18T08:31:27.283Z,4.25
2022-11-18T08:34:07.184Z,3.50
2022-11-18T08:36:37.116Z,3.88
2022-11-18T08:39:07.554Z,3.60
2022-11-18T08:41:45.657Z,3.28
2022-11-18T08:44:15.309Z,3.40
2022-11-18T08:46:45.742Z,4.00
2022-11-18T08:49:13.277Z,4.57
2022-11-18T08:51:40.530Z,4.32
2022-11-18T08:54:07.877Z,4.25
2022-11-18T08:56:35.110Z,3.72
2022-11-18T08:59:02.392Z,3.33
2022-11-18T09:01:29.747Z,3.50
2022-11-18T09:03:58.209Z,4.07
2022-11-18T09:06:26.989Z,3.67
2022-11-18T09:08:54.972Z,3.80
2022-11-18T09:11:26.058Z,4.00
2022-11-18T09:16:43.728Z,4.03
2022-11-18T09:19:40.106Z,4.10
2022-11-18T09:21:59.683Z,4.20
2022-11-18T09:24:29.123Z,4.85
2022-11-18T09:26:57.023Z,4.43
2022-11-18T09:29:26.660Z,4.65
2022-11-18T09:31:54.756Z,4.30
2022-11-18T09:34:22.992Z,4.90
2022-11-18T09:36:50.967Z,5.50
2022-11-18T09:39:18.431Z,5.18
2022-11-18T09:41:47.627Z,6.65
2022-11-18T09:44:46.585Z,5.60
2022-11-18T09:47:34.757Z,4.72
2022-11-18T09:50:47.372Z,5.30
2022-11-18T09:53:22.768Z,5.95
2022-11-18T09:55:51.861Z,5.70
2022-11-18T09:58:29.829Z,5.65
2022-11-18T10:00:57.208Z,5.78
2022-11-18T10:03:28.980Z,6.00
2022-11-18T10:06:03.805Z,4.53
2022-11-18T10:08:37.602Z,4.60
2022-11-18T10:11:11.293Z,3.95
2022-11-18T10:13:49.402Z,3.65
2022-11-18T10:16:36.599Z,4.53
2022-11-18T10:19:44.491Z,4.57
2022-11-18T10:22:18.056Z,4.63
2022-11-18T10:24:56.263Z,4.22
2022-11-18T10:27:37.952Z,4.07
2022-11-18T10:30:23.109Z,4.78
2022-11-18T10:32:59.870Z,4.22
2022-11-18T10:35:31.505Z,4.32
2022-11-18T10:38:14.708Z,3.65
2022-11-18T10:41:06.630Z,3.90
2022-11-18T10:43:53.641Z,3.65
2022-11-18T10:46:27.375Z,3.20
2022-11-18T10:49:09.857Z,3.70
2022-11-18T10:51:39.465Z,3.85
2022-11-18T10:54:22.322Z,4.00
2022-11-18T10:57:09.274Z,3.30
2022-11-18T10:59:41.605Z,3.55
2022-11-18T11:02:31.368Z,3.30
2022-11-18T11:05:25.870Z,3.25
2022-11-18T11:08:35.733Z,3.00
2022-11-18T11:11:04.394Z,3.45
2022-11-18T11:13:32.922Z,3.08
2022-11-18T11:16:06.480Z,3.00
2022-11-18T11:18:41.853Z,2.47
2022-11-18T11:21:30.353Z,2.90
2022-11-18T11:23:58.112Z,2.97
2022-11-18T11:29:45.730Z,2.53
2022-11-18T11:32:51.016Z,2.58
2022-11-18T11:37:58.901Z,2.72
2022-11-18T11:40:44.900Z,2.70
2022-11-18T11:43:23.428Z,2.38
2022-11-18T11:46:19.612Z,2.17
2022-11-18T11:49:01.832Z,2.30
2022-11-18T11:51:48.228Z,2.40
2022-11-18T11:55:00.370Z,2.42
2022-11-18T11:57:52.550Z,2.30
2022-11-18T12:00:21.212Z,2.28
2022-11-18T12:02:48.603Z,2.08
2022-11-18T12:05:34.407Z,2.13
2022-11-18T12:08:14.768Z,2.10
2022-11-18T12:10:54.025Z,1.92
2022-11-18T12:13:53.160Z,2.10
2022-11-18T12:16:29.274Z,1.85
2022-11-18T12:19:07.508Z,1.80
2022-11-18T12:21:46.883Z,2.20
2022-11-18T12:24:36.731Z,2.63
2022-11-18T12:27:14.321Z,1.70
2022-11-18T12:29:50.510Z,1.70
2022-11-18T12:32:35.016Z,1.75
2022-11-18T12:37:58.662Z,1.95
2022-11-18T12:40:51.790Z,1.42
2022-11-18T12:43:51.007Z,1.80
2022-11-18T12:46:27.306Z,1.60
2022-11-18T12:48:54.603Z,2.50
2022-11-18T12:51:21.802Z,2.10
2022-11-18T12:53:55.512Z,1.75
2022-11-18T12:56:31.354Z,1.92
2022-11-18T12:59:00.404Z,1.60
2022-11-18T13:01:35.665Z,1.90
2022-11-18T13:04:12.520Z,1.65
2022-11-18T13:06:40.725Z,1.67
2022-11-18T13:09:24.803Z,1.50
2022-11-18T13:11:59.171Z,1.92
2022-11-18T13:14:51.787Z,2.17
2022-11-18T13:17:45.416Z,1.98
2022-11-18T13:20:33.651Z,1.67
2022-11-18T13:23:33.838Z,1.48
2022-11-18T13:26:16.175Z,1.40
2022-11-18T13:29:02.079Z,1.80
2022-11-18T13:31:46.286Z,1.58
2022-11-18T13:34:18.417Z,2.10
2022-11-18T13:36:47.988Z,1.90
2022-11-18T13:39:27.588Z,2.10
2022-11-18T13:42:18.420Z,1.98
2022-11-18T13:44:56.415Z,1.83
2022-11-18T13:48:02.223Z,2.22
2022-11-18T13:50:54.502Z,2.47
2022-11-18T13:53:30.846Z,2.17
2022-11-18T13:56:02.573Z,2.30
2022-11-18T14:01:34.929Z,2.17
2022-11-18T14:04:18.917Z,2.05
2022-11-18T14:06:46.313Z,2.10
2022-11-18T14:09:28.645Z,2.65
2022-11-18T14:12:32.704Z,2.70
2022-11-18T14:15:21.652Z,2.35
2022-11-18T14:17:57.900Z,2.70
2022-11-18T14:20:26.853Z,3.72
2022-11-18T14:22:58.897Z,4.55
2022-11-18T14:25:30.710Z,2.75
2022-11-18T14:28:19.253Z,2.60
2022-11-18T14:31:20.704Z,2.55
2022-11-18T14:34:16.572Z,2.60
2022-11-18T14:36:44.205Z,2.30
2022-11-18T14:39:27.014Z,1.80
2022-11-18T14:41:59.778Z,2.42
2022-11-18T14:44:28.213Z,2.42
2022-11-18T14:47:02.967Z,4.43
2022-11-18T14:49:33.021Z,5.28
2022-11-18T14:52:03.409Z,5.70
2022-11-18T14:54:31.134Z,2.95
2022-11-18T14:57:02.483Z,2.80
2022-11-18T14:59:30.010Z,2.65
2022-11-18T15:01:59.107Z,2.42
2022-11-18T15:04:26.427Z,3.03
2022-11-18T15:06:53.998Z,2.70
2022-11-18T15:09:21.623Z,4.18
2022-11-18T15:11:49.421Z,3.72
2022-11-18T15:14:16.740Z,3.65
2022-11-18T15:16:44.200Z,4.40
2022-11-18T15:19:15.507Z,5.10
2022-11-18T15:21:43.745Z,4.32
2022-11-18T15:24:11.126Z,3.40
2022-11-18T15:26:43.915Z,3.15
2022-11-18T15:29:23.769Z,3.13
2022-11-18T15:31:52.060Z,3.83
2022-11-18T15:34:21.095Z,4.15
2022-11-18T15:36:50.688Z,4.05
2022-11-18T15:39:18.435Z,3.85
2022-11-18T15:41:45.821Z,3.95
2022-11-18T15:44:13.338Z,3.22
2022-11-18T15:46:41.786Z,3.72
2022-11-18T15:49:17.818Z,3.90
2022-11-18T15:51:48.250Z,5.55
2022-11-18T15:54:15.791Z,17.23
2022-11-18T15:56:43.168Z,56.13
2022-11-18T15:59:13.326Z,32.78
2022-11-18T16:01:43.240Z,32.90
2022-11-18T16:04:12.763Z,7.85
2022-11-18T16:06:43.613Z,6.68
2022-11-18T16:09:11.864Z,4.43
2022-11-18T16:12:17.489Z,6.88
2022-11-18T16:15:04.669Z,5.03
2022-11-18T16:17:31.946Z,5.10
2022-11-18T16:19:59.176Z,4.53
2022-11-18T16:22:26.384Z,4.43
2022-11-18T16:24:53.617Z,5.10
2022-11-18T16:27:21.474Z,4.57
2022-11-18T16:29:48.770Z,4.18
2022-11-18T16:32:16.144Z,4.15
2022-11-18T16:34:43.303Z,5.00
2022-11-18T16:37:10.642Z,4.55
2022-11-18T16:39:37.843Z,4.43
2022-11-18T16:42:08.689Z,4.53
2022-11-18T16:44:37.318Z,3.97
2022-11-18T16:47:12.302Z,3.67
2022-11-18T16:49:41.585Z,3.47
2022-11-18T16:52:09.330Z,5.53
2022-11-18T16:54:42.852Z,6.47
2022-11-18T16:57:12.219Z,8.30
2022-11-18T16:59:39.495Z,6.47
2022-11-18T17:02:07.282Z,6.20
2022-11-18T17:04:36.578Z,7.18
2022-11-18T17:07:04.036Z,6.50
2022-11-18T17:09:31.538Z,6.95
2022-11-18T17:11:58.913Z,4.93
2022-11-18T17:14:26.275Z,4.45
2022-11-18T17:16:53.777Z,4.53
2022-11-18T17:19:23.498Z,4.60
2022-11-18T17:21:52.442Z,4.22
2022-11-18T17:24:22.069Z,4.28
2022-11-18T17:26:50.755Z,4.25
2022-11-18T17:29:18.217Z,4.32
2022-11-18T17:31:48.283Z,5.07
2022-11-18T17:34:16.025Z,5.18
2022-11-18T17:36:44.506Z,4.47
2022-11-18T17:39:13.951Z,4.80
2022-11-18T17:42:01.966Z,4.90
2022-11-18T17:44:30.171Z,5.32
2022-11-18T17:46:57.462Z,5.43
2022-11-18T17:49:24.740Z,5.03
2022-11-18T17:51:53.351Z,4.10
2022-11-18T17:54:21.571Z,25.15
2022-11-18T17:56:52.492Z,11.50
2022-11-18T17:59:20.835Z,8.25
2022-11-18T18:01:48.078Z,9.80
2022-11-18T18:04:20.477Z,7.18
2022-11-18T18:06:51.417Z,7.68
2022-11-18T18:09:21.766Z,8.35
2022-11-18T18:11:52.617Z,8.45
2022-11-18T18:14:20.236Z,6.57
2022-11-18T18:16:49.994Z,6.22
2022-11-18T18:19:22.210Z,5.93
2022-11-18T18:21:50.241Z,6.03
2022-11-18T18:24:20.328Z,6.72
2022-11-18T18:26:49.242Z,6.90
2022-11-18T18:29:17.205Z,8.05
2022-11-18T18:31:50.503Z,7.53
2022-11-18T18:34:18.662Z,7.35
2022-11-18T18:36:46.210Z,6.78
2022-11-18T18:39:16.135Z,6.95
2022-11-18T18:41:44.770Z,6.25
2022-11-18T18:44:18.079Z,6.60
2022-11-18T18:46:45.950Z,8.25
2022-11-18T18:49:16.098Z,10.10
2022-11-18T18:51:46.481Z,9.35
2022-11-18T18:54:16.950Z,9.27
2022-11-18T18:56:45.463Z,10.90
2022-11-18T18:59:14.867Z,10.18
2022-11-18T19:01:42.262Z,11.77
2022-11-18T19:04:13.505Z,51.15
2022-11-18T19:07:00.625Z,15.38
2022-11-18T19:09:36.996Z,26.85
2022-11-18T19:12:23.293Z,15.45
2022-11-18T19:14:53.299Z,12.57
2022-11-18T19:17:21.408Z,11.85
2022-11-18T19:20:07.381Z,11.10
2022-11-18T19:22:37.029Z,10.35
2022-11-18T19:25:04.344Z,13.73
2022-11-18T19:27:31.478Z,20.00
2022-11-18T19:30:01.257Z,16.02
2022-11-18T19:32:30.632Z,13.23
2022-11-18T19:34:57.725Z,8.55
2022-11-18T19:37:26.083Z,5.68
2022-11-18T19:39:53.305Z,4.57
2022-11-18T19:42:21.372Z,3.70
2022-11-18T19:44:49.123Z,3.67
2022-11-18T19:47:16.412Z,3.53
2022-11-18T19:49:44.031Z,3.55
2022-11-18T19:52:15.286Z,5.13
2022-11-18T19:54:42.637Z,8.90
2022-11-18T19:57:12.654Z,7.03
2022-11-18T19:59:40.102Z,3.63
2022-11-18T20:02:12.216Z,3.50
2022-11-18T20:04:39.779Z,3.15
2022-11-18T20:07:07.960Z,5.78
2022-11-18T20:09:38.368Z,4.20
2022-11-18T20:12:06.207Z,4.28
2022-11-18T20:14:33.424Z,4.88
2022-11-18T20:17:01.140Z,5.90
2022-11-18T20:19:29.865Z,5.75
2022-11-18T20:21:57.054Z,6.13
2022-11-18T20:24:29.276Z,8.38
2022-11-18T20:26:57.460Z,9.15
2022-11-18T20:29:26.265Z,9.52
2022-11-18T20:31:53.875Z,10.15
2022-11-18T20:34:23.023Z,9.02
2022-11-18T20:36:53.347Z,9.07
2022-11-18T20:39:22.139Z,10.35
2022-11-18T20:42:08.284Z,6.70
2022-11-18T20:44:35.497Z,6.45
2022-11-18T20:47:03.046Z,5.95
2022-11-18T20:49:31.270Z,6.90
2022-11-18T20:51:58.653Z,6.32
2022-11-18T20:54:25.865Z,6.88
2022-11-18T20:56:53.111Z,7.88
2022-11-18T20:59:20.628Z,8.70
2022-11-18T21:01:49.109Z,8.65
2022-11-18T21:04:16.232Z,9.25
2022-11-18T21:06:43.237Z,9.73
2022-11-18T21:09:12.826Z,9.82
2022-11-18T21:11:40.524Z,9.98
2022-11-18T21:14:23.857Z,10.10
2022-11-18T21:17:11.893Z,11.57
2022-11-18T21:19:39.160Z,11.40
2022-11-18T21:22:06.301Z,12.10
2022-11-18T21:24:34.552Z,13.55
2022-11-18T21:27:03.699Z,12.77
2022-11-18T21:29:32.639Z,12.50
2022-11-18T21:32:03.410Z,12.10
2022-11-18T21:34:30.764Z,12.90
2022-11-18T21:36:58.338Z,12.02
2022-11-18T21:39:27.603Z,11.27
2022-11-18T21:41:57.140Z,10.77
2022-11-18T21:44:26.262Z,9.93
2022-11-18T21:46:53.835Z,9.05
2022-11-18T21:49:21.564Z,9.80
2022-11-18T21:51:49.039Z,9.40
2022-11-18T21:54:18.443Z,9.60
2022-11-18T21:56:45.656Z,9.30
2022-11-18T21:59:12.776Z,8.90
2022-11-18T22:01:39.854Z,9.00
2022-11-18T22:04:07.522Z,7.70
2022-11-18T22:06:35.288Z,9.07
2022-11-18T22:09:04.221Z,10.38
2022-11-18T22:11:32.779Z,8.77
2022-11-18T22:13:59.772Z,8.77
2022-11-18T22:16:27.820Z,8.57
2022-11-18T22:19:03.573Z,9.80
2022-11-18T22:21:32.363Z,7.70
2022-11-18T22:24:00.853Z,8.95
2022-11-18T22:26:29.045Z,8.43
2022-11-18T22:28:57.767Z,8.43
2022-11-18T22:31:26.439Z,8.60
2022-11-18T22:33:55.764Z,7.93
2022-11-18T22:36:25.712Z,8.30
2022-11-18T22:38:54.351Z,8.77
2022-11-18T22:41:44.934Z,8.95
2022-11-18T22:44:14.195Z,9.93
2022-11-18T22:46:42.846Z,8.90
2022-11-18T22:49:11.727Z,8.18
2022-11-18T22:51:39.953Z,8.40
2022-11-18T22:56:55.726Z,7.93
2022-11-18T22:59:23.282Z,7.55
2022-11-18T23:01:53.623Z,7.05
2022-11-18T23:04:21.032Z,8.38
2022-11-18T23:06:51.293Z,7.80
2022-11-18T23:09:18.686Z,8.43
2022-11-18T23:12:04.510Z,8.38
2022-11-18T23:14:31.712Z,8.07
2022-11-18T23:16:59.335Z,8.18
2022-11-18T23:19:26.447Z,9.10
2022-11-18T23:21:53.534Z,9.52
2022-11-18T23:24:20.626Z,10.10
2022-11-18T23:26:48.247Z,9.60
2022-11-18T23:29:16.557Z,10.20
2022-11-18T23:31:44.991Z,9.80
2022-11-18T23:34:14.042Z,9.60
2022-11-18T23:36:41.486Z,10.80
2022-11-18T23:39:08.921Z,9.57
2022-11-18T23:41:36.310Z,10.60
2022-11-18T23:44:03.922Z,10.93
2022-11-18T23:46:31.239Z,9.82
2022-11-18T23:48:58.404Z,10.45
2022-11-18T23:51:26.405Z,10.70
2022-11-18T23:53:56.228Z,11.10
2022-11-18T23:56:25.678Z,9.93
2022-11-18T23:58:54.365Z,10.82
